sensor_id;sensor_type;location;lat;lon;timestamp;pressure;altitude;pressure_sealevel;temperature;humidity
36964;BME280;22878;48.616;35.326;2023-04-22T00:00:43;100081.73;;;9.41;100.00
36964;BME280;22878;48.616;35.326;2023-04-22T00:03:09;100080.27;;;9.44;100.00
36964;BME280;22878;48.616;35.326;2023-04-22T00:05:34;100084.80;;;9.43;100.00
36964;BME280;22878;48.616;35.326;2023-04-22T00:08:00;100088.95;;;9.42;100.00
36964;BME280;22878;48.616;35.326;2023-04-22T00:10:26;100090.30;;;9.42;100.00
36964;BME280;22878;48.616;35.326;2023-04-22T00:12:52;100097.35;;;9.45;100.00
36964;BME280;22878;48.616;35.326;2023-04-22T00:15:17;100098.20;;;9.45;100.00
36964;BME280;22878;48.616;35.326;2023-04-22T00:17:48;100098.80;;;9.46;100.00
36964;BME280;22878;48.616;35.326;2023-04-22T00:20:14;100096.64;;;9.47;100.00
36964;BME280;22878;48.616;35.326;2023-04-22T00:22:40;100099.34;;;9.50;100.00
36964;BME280;22878;48.616;35.326;2023-04-22T00:25:06;100097.66;;;9.49;100.00
36964;BME280;22878;48.616;35.326;2023-04-22T00:27:32;100098.86;;;9.50;100.00
36964;BME280;22878;48.616;35.326;2023-04-22T00:29:57;100097.45;;;9.48;100.00
36964;BME280;22878;48.616;35.326;2023-04-22T00:32:23;100103.80;;;9.49;100.00
36964;BME280;22878;48.616;35.326;2023-04-22T00:34:48;100102.09;;;9.50;100.00
36964;BME280;22878;48.616;35.326;2023-04-22T00:37:14;100101.83;;;9.53;100.00
36964;BME280;22878;48.616;35.326;2023-04-22T00:39:40;100105.21;;;9.51;100.00
36964;BME280;22878;48.616;35.326;2023-04-22T00:42:05;100105.98;;;9.51;100.00
36964;BME280;22878;48.616;35.326;2023-04-22T00:44:32;100106.54;;;9.56;100.00
36964;BME280;22878;48.616;35.326;2023-04-22T00:46:58;100105.56;;;9.57;100.00
36964;BME280;22878;48.616;35.326;2023-04-22T00:49:26;100104.20;;;9.56;100.00
36964;BME280;22878;48.616;35.326;2023-04-22T00:51:52;100107.96;;;9.55;100.00
36964;BME280;22878;48.616;35.326;2023-04-22T00:54:18;100109.10;;;9.55;100.00
36964;BME280;22878;48.616;35.326;2023-04-22T00:56:44;100110.16;;;9.49;100.00
36964;BME280;22878;48.616;35.326;2023-04-22T00:59:10;100107.84;;;9.51;100.00
36964;BME280;22878;48.616;35.326;2023-04-22T01:01:37;100111.83;;;9.51;100.00
36964;BME280;22878;48.616;35.326;2023-04-22T01:04:03;100115.92;;;9.52;100.00
36964;BME280;22878;48.616;35.326;2023-04-22T01:06:29;100114.80;;;9.55;100.00
36964;BME280;22878;48.616;35.326;2023-04-22T01:08:57;100116.20;;;9.58;100.00
36964;BME280;22878;48.616;35.326;2023-04-22T01:11:23;100114.86;;;9.55;100.00
36964;BME280;22878;48.616;35.326;2023-04-22T01:13:48;100112.22;;;9.57;100.00
36964;BME280;22878;48.616;35.326;2023-04-22T01:16:14;100115.20;;;9.62;100.00
36964;BME280;22878;48.616;35.326;2023-04-22T01:18:40;100116.11;;;9.67;100.00
36964;BME280;22878;48.616;35.326;2023-04-22T01:21:06;100119.79;;;9.68;100.00
36964;BME280;22878;48.616;35.326;2023-04-22T01:23:32;100119.56;;;9.65;100.00
36964;BME280;22878;48.616;35.326;2023-04-22T01:25:58;100119.91;;;9.60;100.00
36964;BME280;22878;48.616;35.326;2023-04-22T01:28:24;100120.13;;;9.58;100.00
36964;BME280;22878;48.616;35.326;2023-04-22T01:30:50;100118.04;;;9.57;100.00
36964;BME280;22878;48.616;35.326;2023-04-22T01:33:17;100118.52;;;9.58;100.00
36964;BME280;22878;48.616;35.326;2023-04-22T01:35:42;100121.38;;;9.59;100.00
36964;BME280;22878;48.616;35.326;2023-04-22T01:38:10;100121.05;;;9.60;100.00
36964;BME280;22878;48.616;35.326;2023-04-22T01:40:37;100121.16;;;9.59;100.00
36964;BME280;22878;48.616;35.326;2023-04-22T01:43:03;100119.81;;;9.60;100.00
36964;BME280;22878;48.616;35.326;2023-04-22T01:45:29;100117.62;;;9.64;100.00
36964;BME280;22878;48.616;35.326;2023-04-22T01:47:54;100117.42;;;9.68;100.00
36964;BME280;22878;48.616;35.326;2023-04-22T01:50:20;100118.55;;;9.67;100.00
36964;BME280;22878;48.616;35.326;2023-04-22T01:52:46;100120.91;;;9.64;100.00
36964;BME280;22878;48.616;35.326;2023-04-22T01:55:12;100116.98;;;9.64;100.00
36964;BME280;22878;48.616;35.326;2023-04-22T01:57:37;100116.12;;;9.62;100.00
36964;BME280;22878;48.616;35.326;2023-04-22T02:00:04;100117.79;;;9.64;100.00
36964;BME280;22878;48.616;35.326;2023-04-22T02:02:30;100118.91;;;9.65;100.00
36964;BME280;22878;48.616;35.326;2023-04-22T02:04:56;100116.83;;;9.67;100.00
36964;BME280;22878;48.616;35.326;2023-04-22T02:07:22;100117.41;;;9.69;100.00
36964;BME280;22878;48.616;35.326;2023-04-22T02:09:48;100116.34;;;9.67;100.00
36964;BME280;22878;48.616;35.326;2023-04-22T02:12:14;100117.45;;;9.64;100.00
36964;BME280;22878;48.616;35.326;2023-04-22T02:14:40;100121.75;;;9.61;100.00
36964;BME280;22878;48.616;35.326;2023-04-22T02:17:05;100124.17;;;9.61;100.00
36964;BME280;22878;48.616;35.326;2023-04-22T02:19:31;100122.94;;;9.62;100.00
36964;BME280;22878;48.616;35.326;2023-04-22T02:21:56;100124.01;;;9.61;100.00
36964;BME280;22878;48.616;35.326;2023-04-22T02:24:22;100122.45;;;9.62;100.00
36964;BME280;22878;48.616;35.326;2023-04-22T02:26:47;100121.71;;;9.60;100.00
36964;BME280;22878;48.616;35.326;2023-04-22T02:29:13;100121.97;;;9.59;100.00
36964;BME280;22878;48.616;35.326;2023-04-22T02:31:40;100124.66;;;9.61;100.00
36964;BME280;22878;48.616;35.326;2023-04-22T02:34:06;100121.65;;;9.60;100.00
36964;BME280;22878;48.616;35.326;2023-04-22T02:36:31;100126.37;;;9.62;100.00
36964;BME280;22878;48.616;35.326;2023-04-22T02:38:58;100127.63;;;9.62;100.00
36964;BME280;22878;48.616;35.326;2023-04-22T02:41:24;100127.58;;;9.63;100.00
36964;BME280;22878;48.616;35.326;2023-04-22T02:43:50;100128.43;;;9.63;100.00
36964;BME280;22878;48.616;35.326;2023-04-22T02:46:15;100128.12;;;9.66;100.00
36964;BME280;22878;48.616;35.326;2023-04-22T02:48:41;100125.80;;;9.64;100.00
36964;BME280;22878;48.616;35.326;2023-04-22T02:51:07;100130.82;;;9.67;100.00
36964;BME280;22878;48.616;35.326;2023-04-22T02:53:33;100135.77;;;9.69;100.00
36964;BME280;22878;48.616;35.326;2023-04-22T02:55:58;100132.92;;;9.69;100.00
36964;BME280;22878;48.616;35.326;2023-04-22T02:58:24;100139.54;;;9.69;100.00
36964;BME280;22878;48.616;35.326;2023-04-22T03:00:51;100141.64;;;9.73;100.00
36964;BME280;22878;48.616;35.326;2023-04-22T03:03:17;100142.30;;;9.74;100.00
36964;BME280;22878;48.616;35.326;2023-04-22T03:08:26;100146.33;;;9.73;100.00
36964;BME280;22878;48.616;35.326;2023-04-22T03:10:51;100145.63;;;9.74;100.00
36964;BME280;22878;48.616;35.326;2023-04-22T03:13:17;100148.11;;;9.76;100.00
36964;BME280;22878;48.616;35.326;2023-04-22T03:15:42;100151.56;;;9.76;100.00
36964;BME280;22878;48.616;35.326;2023-04-22T03:18:08;100155.33;;;9.79;100.00
36964;BME280;22878;48.616;35.326;2023-04-22T03:20:34;100161.52;;;9.82;100.00
36964;BME280;22878;48.616;35.326;2023-04-22T03:23:00;100164.22;;;9.84;100.00
36964;BME280;22878;48.616;35.326;2023-04-22T03:25:26;100169.02;;;9.87;100.00
36964;BME280;22878;48.616;35.326;2023-04-22T03:27:51;100170.09;;;9.86;100.00
36964;BME280;22878;48.616;35.326;2023-04-22T03:30:17;100172.73;;;9.86;100.00
36964;BME280;22878;48.616;35.326;2023-04-22T03:32:42;100177.48;;;9.90;100.00
36964;BME280;22878;48.616;35.326;2023-04-22T03:35:08;100178.52;;;9.90;100.00
36964;BME280;22878;48.616;35.326;2023-04-22T03:37:33;100184.01;;;9.94;100.00
36964;BME280;22878;48.616;35.326;2023-04-22T03:39:59;100185.80;;;10.02;100.00
36964;BME280;22878;48.616;35.326;2023-04-22T03:42:25;100192.02;;;10.15;100.00
36964;BME280;22878;48.616;35.326;2023-04-22T03:44:50;100195.79;;;10.14;100.00
36964;BME280;22878;48.616;35.326;2023-04-22T03:47:16;100197.45;;;10.15;100.00
36964;BME280;22878;48.616;35.326;2023-04-22T03:49:41;100199.77;;;10.17;100.00
36964;BME280;22878;48.616;35.326;2023-04-22T03:52:07;100198.96;;;10.16;100.00
36964;BME280;22878;48.616;35.326;2023-04-22T03:54:32;100201.67;;;10.22;100.00
36964;BME280;22878;48.616;35.326;2023-04-22T03:56:58;100203.92;;;10.23;100.00
36964;BME280;22878;48.616;35.326;2023-04-22T03:59:23;100203.43;;;10.28;100.00
36964;BME280;22878;48.616;35.326;2023-04-22T04:01:50;100209.10;;;10.34;100.00
36964;BME280;22878;48.616;35.326;2023-04-22T04:04:17;100210.72;;;10.34;100.00
36964;BME280;22878;48.616;35.326;2023-04-22T04:06:42;100210.44;;;10.34;100.00
36964;BME280;22878;48.616;35.326;2023-04-22T04:09:08;100212.27;;;10.32;100.00
36964;BME280;22878;48.616;35.326;2023-04-22T04:11:33;100216.20;;;10.33;100.00
36964;BME280;22878;48.616;35.326;2023-04-22T04:13:59;100217.06;;;10.32;100.00
36964;BME280;22878;48.616;35.326;2023-04-22T04:16:24;100220.19;;;10.33;100.00
36964;BME280;22878;48.616;35.326;2023-04-22T04:18:50;100223.77;;;10.41;100.00
36964;BME280;22878;48.616;35.326;2023-04-22T04:21:16;100223.27;;;10.45;100.00
36964;BME280;22878;48.616;35.326;2023-04-22T04:23:42;100222.42;;;10.52;100.00
36964;BME280;22878;48.616;35.326;2023-04-22T04:26:10;100221.45;;;10.54;100.00
36964;BME280;22878;48.616;35.326;2023-04-22T04:28:36;100226.25;;;10.56;100.00
36964;BME280;22878;48.616;35.326;2023-04-22T04:31:01;100225.88;;;10.58;100.00
36964;BME280;22878;48.616;35.326;2023-04-22T04:33:28;100224.69;;;10.64;100.00
36964;BME280;22878;48.616;35.326;2023-04-22T04:35:56;100224.80;;;10.71;100.00
36964;BME280;22878;48.616;35.326;2023-04-22T04:38:22;100225.77;;;10.79;100.00
36964;BME280;22878;48.616;35.326;2023-04-22T04:40:51;100227.92;;;10.90;100.00
36964;BME280;22878;48.616;35.326;2023-04-22T04:43:19;100229.10;;;10.95;100.00
36964;BME280;22878;48.616;35.326;2023-04-22T04:45:45;100233.30;;;11.01;100.00
36964;BME280;22878;48.616;35.326;2023-04-22T04:48:12;100232.70;;;11.05;100.00
36964;BME280;22878;48.616;35.326;2023-04-22T04:50:42;100237.01;;;11.07;100.00
36964;BME280;22878;48.616;35.326;2023-04-22T04:53:09;100238.84;;;11.09;100.00
36964;BME280;22878;48.616;35.326;2023-04-22T04:55:34;100236.45;;;11.16;100.00
36964;BME280;22878;48.616;35.326;2023-04-22T04:58:00;100242.36;;;11.30;100.00
36964;BME280;22878;48.616;35.326;2023-04-22T05:00:25;100247.33;;;11.35;100.00
36964;BME280;22878;48.616;35.326;2023-04-22T05:02:51;100245.73;;;11.37;100.00
36964;BME280;22878;48.616;35.326;2023-04-22T05:05:17;100248.33;;;11.44;100.00
36964;BME280;22878;48.616;35.326;2023-04-22T05:07:42;100249.11;;;11.56;100.00
36964;BME280;22878;48.616;35.326;2023-04-22T05:10:08;100250.58;;;11.85;100.00
36964;BME280;22878;48.616;35.326;2023-04-22T05:12:34;100250.06;;;12.07;100.00
36964;BME280;22878;48.616;35.326;2023-04-22T05:14:59;100250.06;;;12.26;100.00
36964;BME280;22878;48.616;35.326;2023-04-22T05:17:25;100250.83;;;12.42;100.00
36964;BME280;22878;48.616;35.326;2023-04-22T05:19:51;100249.95;;;12.43;100.00
36964;BME280;22878;48.616;35.326;2023-04-22T05:22:16;100253.80;;;12.49;100.00
36964;BME280;22878;48.616;35.326;2023-04-22T05:24:42;100252.66;;;12.65;100.00
36964;BME280;22878;48.616;35.326;2023-04-22T05:27:08;100254.08;;;12.84;100.00
36964;BME280;22878;48.616;35.326;2023-04-22T05:29:34;100255.45;;;13.02;100.00
36964;BME280;22878;48.616;35.326;2023-04-22T05:31:59;100254.81;;;12.96;100.00
36964;BME280;22878;48.616;35.326;2023-04-22T05:34:25;100260.43;;;12.82;100.00
36964;BME280;22878;48.616;35.326;2023-04-22T05:36:51;100259.69;;;12.75;100.00
36964;BME280;22878;48.616;35.326;2023-04-22T05:39:16;100260.68;;;12.86;100.00
36964;BME280;22878;48.616;35.326;2023-04-22T05:41:42;100262.63;;;12.85;100.00
36964;BME280;22878;48.616;35.326;2023-04-22T05:44:07;100263.48;;;12.73;100.00
36964;BME280;22878;48.616;35.326;2023-04-22T05:46:33;100263.52;;;12.56;100.00
36964;BME280;22878;48.616;35.326;2023-04-22T05:48:58;100264.14;;;12.48;100.00
36964;BME280;22878;48.616;35.326;2023-04-22T05:51:24;100266.67;;;12.48;100.00
36964;BME280;22878;48.616;35.326;2023-04-22T05:53:49;100271.16;;;12.39;100.00
36964;BME280;22878;48.616;35.326;2023-04-22T05:56:15;100275.05;;;12.42;100.00
36964;BME280;22878;48.616;35.326;2023-04-22T05:58:41;100268.90;;;12.56;100.00
36964;BME280;22878;48.616;35.326;2023-04-22T06:01:08;100274.36;;;12.71;100.00
36964;BME280;22878;48.616;35.326;2023-04-22T06:03:34;100272.73;;;12.72;100.00
36964;BME280;22878;48.616;35.326;2023-04-22T06:05:59;100276.86;;;12.83;100.00
36964;BME280;22878;48.616;35.326;2023-04-22T06:08:26;100278.57;;;12.94;100.00
36964;BME280;22878;48.616;35.326;2023-04-22T06:10:51;100277.91;;;13.13;100.00
36964;BME280;22878;48.616;35.326;2023-04-22T06:13:17;100281.23;;;13.32;100.00
36964;BME280;22878;48.616;35.326;2023-04-22T06:15:42;100279.25;;;13.30;100.00
36964;BME280;22878;48.616;35.326;2023-04-22T06:18:08;100283.80;;;13.21;100.00
36964;BME280;22878;48.616;35.326;2023-04-22T06:20:33;100286.04;;;13.18;100.00
36964;BME280;22878;48.616;35.326;2023-04-22T06:23:00;100282.25;;;13.53;100.00
36964;BME280;22878;48.616;35.326;2023-04-22T06:25:26;100286.55;;;14.12;100.00
36964;BME280;22878;48.616;35.326;2023-04-22T06:27:51;100291.14;;;14.38;100.00
36964;BME280;22878;48.616;35.326;2023-04-22T06:30:17;100288.31;;;14.64;100.00
36964;BME280;22878;48.616;35.326;2023-04-22T06:32:43;100287.70;;;14.40;100.00
36964;BME280;22878;48.616;35.326;2023-04-22T06:35:08;100294.70;;;14.39;100.00
36964;BME280;22878;48.616;35.326;2023-04-22T06:37:34;100294.04;;;14.35;100.00
36964;BME280;22878;48.616;35.326;2023-04-22T06:39:59;100299.18;;;14.24;100.00
36964;BME280;22878;48.616;35.326;2023-04-22T06:42:25;100303.95;;;14.17;100.00
36964;BME280;22878;48.616;35.326;2023-04-22T06:44:50;100307.06;;;14.24;100.00
36964;BME280;22878;48.616;35.326;2023-04-22T06:47:16;100307.33;;;14.16;100.00
36964;BME280;22878;48.616;35.326;2023-04-22T06:49:41;100311.80;;;14.13;100.00
36964;BME280;22878;48.616;35.326;2023-04-22T06:52:09;100307.84;;;14.25;100.00
36964;BME280;22878;48.616;35.326;2023-04-22T06:54:34;100301.69;;;15.46;100.00
36964;BME280;22878;48.616;35.326;2023-04-22T06:57:00;100302.30;;;16.77;100.00
36964;BME280;22878;48.616;35.326;2023-04-22T06:59:25;100303.52;;;17.16;99.78
36964;BME280;22878;48.616;35.326;2023-04-22T07:01:51;100308.10;;;16.79;96.05
36964;BME280;22878;48.616;35.326;2023-04-22T07:04:16;100311.54;;;16.45;99.90
36964;BME280;22878;48.616;35.326;2023-04-22T07:06:42;100315.66;;;16.18;99.72
36964;BME280;22878;48.616;35.326;2023-04-22T07:09:08;100320.20;;;15.77;98.90
36964;BME280;22878;48.616;35.326;2023-04-22T07:11:33;100320.77;;;15.46;100.00
36964;BME280;22878;48.616;35.326;2023-04-22T07:13:59;100326.51;;;15.41;100.00
36964;BME280;22878;48.616;35.326;2023-04-22T07:16:25;100331.43;;;15.33;100.00
36964;BME280;22878;48.616;35.326;2023-04-22T07:18:51;100331.07;;;15.22;100.00
36964;BME280;22878;48.616;35.326;2023-04-22T07:21:17;100328.99;;;15.20;99.83
36964;BME280;22878;48.616;35.326;2023-04-22T07:23:42;100331.59;;;15.45;98.68
36964;BME280;22878;48.616;35.326;2023-04-22T07:26:08;100330.41;;;15.64;98.16
36964;BME280;22878;48.616;35.326;2023-04-22T07:28:33;100332.34;;;15.81;96.35
36964;BME280;22878;48.616;35.326;2023-04-22T07:30:59;100334.95;;;15.92;95.45
36964;BME280;22878;48.616;35.326;2023-04-22T07:33:24;100338.05;;;15.70;92.33
36964;BME280;22878;48.616;35.326;2023-04-22T07:35:50;100341.90;;;15.46;97.39
36964;BME280;22878;48.616;35.326;2023-04-22T07:38:15;100347.30;;;15.07;97.31
36964;BME280;22878;48.616;35.326;2023-04-22T07:40:41;100353.20;;;14.59;99.23
36964;BME280;22878;48.616;35.326;2023-04-22T07:43:06;100352.43;;;14.23;100.00
36964;BME280;22878;48.616;35.326;2023-04-22T07:45:32;100353.63;;;13.95;100.00
36964;BME280;22878;48.616;35.326;2023-04-22T07:47:58;100355.98;;;13.79;100.00
36964;BME280;22878;48.616;35.326;2023-04-22T07:50:23;100359.94;;;13.62;100.00
36964;BME280;22878;48.616;35.326;2023-04-22T07:52:49;100362.55;;;13.53;100.00
36964;BME280;22878;48.616;35.326;2023-04-22T07:55:14;100370.91;;;13.53;100.00
36964;BME280;22878;48.616;35.326;2023-04-22T07:57:40;100367.96;;;13.49;100.00
36964;BME280;22878;48.616;35.326;2023-04-22T08:00:07;100370.06;;;13.50;100.00
36964;BME280;22878;48.616;35.326;2023-04-22T08:02:33;100374.10;;;13.53;100.00
36964;BME280;22878;48.616;35.326;2023-04-22T08:04:58;100375.27;;;13.55;100.00
36964;BME280;22878;48.616;35.326;2023-04-22T08:07:24;100378.64;;;13.60;100.00
36964;BME280;22878;48.616;35.326;2023-04-22T08:09:49;100383.48;;;13.56;100.00
36964;BME280;22878;48.616;35.326;2023-04-22T08:12:15;100382.83;;;13.45;100.00
36964;BME280;22878;48.616;35.326;2023-04-22T08:14:40;100386.77;;;13.47;100.00
36964;BME280;22878;48.616;35.326;2023-04-22T08:17:06;100391.33;;;13.57;100.00
36964;BME280;22878;48.616;35.326;2023-04-22T08:19:31;100391.59;;;13.64;100.00
36964;BME280;22878;48.616;35.326;2023-04-22T08:21:57;100392.23;;;13.76;100.00
36964;BME280;22878;48.616;35.326;2023-04-22T08:24:22;100388.86;;;13.93;100.00
36964;BME280;22878;48.616;35.326;2023-04-22T08:26:48;100387.97;;;14.01;100.00
36964;BME280;22878;48.616;35.326;2023-04-22T08:29:14;100389.30;;;14.04;100.00
36964;BME280;22878;48.616;35.326;2023-04-22T08:31:40;100389.12;;;14.05;100.00
36964;BME280;22878;48.616;35.326;2023-04-22T08:34:06;100391.39;;;14.06;100.00
36964;BME280;22878;48.616;35.326;2023-04-22T08:36:31;100397.14;;;14.05;100.00
36964;BME280;22878;48.616;35.326;2023-04-22T08:38:57;100394.13;;;14.07;100.00
36964;BME280;22878;48.616;35.326;2023-04-22T08:41:22;100398.10;;;14.26;100.00
36964;BME280;22878;48.616;35.326;2023-04-22T08:43:49;100398.19;;;14.23;100.00
36964;BME280;22878;48.616;35.326;2023-04-22T08:46:17;100403.25;;;14.16;100.00
36964;BME280;22878;48.616;35.326;2023-04-22T08:48:46;100407.36;;;14.03;100.00
36964;BME280;22878;48.616;35.326;2023-04-22T08:51:14;100409.83;;;13.88;100.00
36964;BME280;22878;48.616;35.326;2023-04-22T08:53:40;100413.54;;;13.80;100.00
36964;BME280;22878;48.616;35.326;2023-04-22T08:56:06;100416.65;;;13.72;100.00
36964;BME280;22878;48.616;35.326;2023-04-22T08:58:32;100410.00;;;13.83;100.00
36964;BME280;22878;48.616;35.326;2023-04-22T09:00:58;100411.77;;;14.19;100.00
36964;BME280;22878;48.616;35.326;2023-04-22T09:03:25;100413.14;;;15.14;100.00
36964;BME280;22878;48.616;35.326;2023-04-22T09:05:50;100405.85;;;16.18;100.00
36964;BME280;22878;48.616;35.326;2023-04-22T09:08:17;100404.72;;;16.64;97.22
36964;BME280;22878;48.616;35.326;2023-04-22T09:10:44;100408.66;;;16.74;89.15
36964;BME280;22878;48.616;35.326;2023-04-22T09:13:09;100410.48;;;16.31;86.14
36964;BME280;22878;48.616;35.326;2023-04-22T09:15:36;100411.69;;;16.12;91.34
36964;BME280;22878;48.616;35.326;2023-04-22T09:18:02;100412.92;;;16.25;92.02
36964;BME280;22878;48.616;35.326;2023-04-22T09:20:30;100411.41;;;16.24;88.75
36964;BME280;22878;48.616;35.326;2023-04-22T09:23:01;100412.80;;;16.28;89.17
36964;BME280;22878;48.616;35.326;2023-04-22T09:25:28;100414.83;;;16.38;89.16
36964;BME280;22878;48.616;35.326;2023-04-22T09:27:58;100415.02;;;16.19;82.26
36964;BME280;22878;48.616;35.326;2023-04-22T09:30:34;100417.56;;;15.69;83.00
36964;BME280;22878;48.616;35.326;2023-04-22T09:33:04;100424.42;;;15.54;84.01
36964;BME280;22878;48.616;35.326;2023-04-22T09:35:31;100427.11;;;15.39;84.79
36964;BME280;22878;48.616;35.326;2023-04-22T09:37:59;100431.95;;;15.30;87.87
36964;BME280;22878;48.616;35.326;2023-04-22T09:40:26;100432.69;;;15.16;87.49
36964;BME280;22878;48.616;35.326;2023-04-22T09:42:57;100437.25;;;15.08;90.91
36964;BME280;22878;48.616;35.326;2023-04-22T09:45:35;100435.02;;;15.13;93.42
36964;BME280;22878;48.616;35.326;2023-04-22T09:48:10;100438.09;;;15.22;93.10
36964;BME280;22878;48.616;35.326;2023-04-22T09:50:43;100436.92;;;15.26;89.42
36964;BME280;22878;48.616;35.326;2023-04-22T09:53:11;100438.60;;;14.94;87.91
36964;BME280;22878;48.616;35.326;2023-04-22T09:55:41;100440.73;;;15.01;92.65
36964;BME280;22878;48.616;35.326;2023-04-22T09:58:12;100443.19;;;15.19;91.74
36964;BME280;22878;48.616;35.326;2023-04-22T10:00:52;100446.94;;;15.43;94.37
36964;BME280;22878;48.616;35.326;2023-04-22T10:03:18;100437.25;;;15.71;89.71
36964;BME280;22878;48.616;35.326;2023-04-22T10:05:44;100441.66;;;16.00;89.41
36964;BME280;22878;48.616;35.326;2023-04-22T10:08:12;100436.98;;;16.20;84.17
36964;BME280;22878;48.616;35.326;2023-04-22T10:10:38;100436.92;;;16.12;82.26
36964;BME280;22878;48.616;35.326;2023-04-22T10:13:05;100435.86;;;16.22;81.59
36964;BME280;22878;48.616;35.326;2023-04-22T10:15:33;100432.41;;;16.28;79.42
36964;BME280;22878;48.616;35.326;2023-04-22T10:18:02;100434.55;;;16.42;81.15
36964;BME280;22878;48.616;35.326;2023-04-22T10:20:30;100435.02;;;16.78;78.45
36964;BME280;22878;48.616;35.326;2023-04-22T10:23:03;100434.27;;;16.69;75.45
36964;BME280;22878;48.616;35.326;2023-04-22T10:25:29;100436.91;;;16.65;76.91
36964;BME280;22878;48.616;35.326;2023-04-22T10:28:04;100437.02;;;16.84;77.23
36964;BME280;22878;48.616;35.326;2023-04-22T10:30:32;100442.30;;;16.94;76.08
36964;BME280;22878;48.616;35.326;2023-04-22T10:36:25;100438.14;;;17.13;74.76
36964;BME280;22878;48.616;35.326;2023-04-22T10:44:51;100446.84;;;16.58;74.57
36964;BME280;22878;48.616;35.326;2023-04-22T10:49:50;100460.21;;;16.28;93.41
36964;BME280;22878;48.616;35.326;2023-04-22T10:52:28;100461.96;;;16.05;97.85
36964;BME280;22878;48.616;35.326;2023-04-22T10:57:19;100465.05;;;15.65;100.00
36964;BME280;22878;48.616;35.326;2023-04-22T10:59:51;100463.19;;;15.56;100.00
36964;BME280;22878;48.616;35.326;2023-04-22T11:02:18;100465.70;;;15.45;100.00
36964;BME280;22878;48.616;35.326;2023-04-22T11:04:45;100462.50;;;15.41;100.00
36964;BME280;22878;48.616;35.326;2023-04-22T11:09:52;100465.84;;;15.42;100.00
36964;BME280;22878;48.616;35.326;2023-04-22T11:15:06;100471.96;;;15.58;100.00
36964;BME280;22878;48.616;35.326;2023-04-22T11:17:33;100470.81;;;15.77;100.00
36964;BME280;22878;48.616;35.326;2023-04-22T11:19:59;100469.67;;;15.96;100.00
36964;BME280;22878;48.616;35.326;2023-04-22T11:22:24;100468.05;;;16.10;100.00
36964;BME280;22878;48.616;35.326;2023-04-22T11:24:54;100464.75;;;16.36;100.00
36964;BME280;22878;48.616;35.326;2023-04-22T11:27:20;100460.13;;;16.90;100.00
36964;BME280;22878;48.616;35.326;2023-04-22T11:30:03;100454.86;;;17.36;100.00
36964;BME280;22878;48.616;35.326;2023-04-22T11:32:31;100451.19;;;17.66;98.17
36964;BME280;22878;48.616;35.326;2023-04-22T11:34:57;100452.80;;;17.79;99.53
36964;BME280;22878;48.616;35.326;2023-04-22T11:37:23;100452.98;;;17.91;99.70
36964;BME280;22878;48.616;35.326;2023-04-22T11:39:49;100453.00;;;17.88;99.60
36964;BME280;22878;48.616;35.326;2023-04-22T11:42:21;100455.29;;;17.77;100.00
36964;BME280;22878;48.616;35.326;2023-04-22T11:44:50;100458.64;;;17.64;99.44
36964;BME280;22878;48.616;35.326;2023-04-22T11:47:15;100462.52;;;17.44;98.21
36964;BME280;22878;48.616;35.326;2023-04-22T11:49:53;100460.33;;;17.28;98.83
36964;BME280;22878;48.616;35.326;2023-04-22T11:52:19;100465.39;;;17.09;98.82
36964;BME280;22878;48.616;35.326;2023-04-22T11:54:45;100463.91;;;16.94;97.36
36964;BME280;22878;48.616;35.326;2023-04-22T11:57:10;100463.98;;;16.81;95.91
36964;BME280;22878;48.616;35.326;2023-04-22T11:59:40;100463.57;;;16.77;94.35
36964;BME280;22878;48.616;35.326;2023-04-22T12:02:07;100466.41;;;16.76;95.12
36964;BME280;22878;48.616;35.326;2023-04-22T12:04:39;100464.42;;;16.71;93.96
36964;BME280;22878;48.616;35.326;2023-04-22T12:07:05;100463.64;;;16.67;93.23
36964;BME280;22878;48.616;35.326;2023-04-22T12:12:53;100470.11;;;16.59;90.85
36964;BME280;22878;48.616;35.326;2023-04-22T12:15:18;100474.52;;;15.99;92.46
36964;BME280;22878;48.616;35.326;2023-04-22T12:17:44;100476.96;;;15.82;98.06
36964;BME280;22878;48.616;35.326;2023-04-22T12:20:10;100473.59;;;15.83;97.30
36964;BME280;22878;48.616;35.326;2023-04-22T12:22:37;100467.03;;;15.94;99.80
36964;BME280;22878;48.616;35.326;2023-04-22T12:25:03;100469.65;;;16.06;98.33
36964;BME280;22878;48.616;35.326;2023-04-22T12:27:29;100471.55;;;16.12;100.00
36964;BME280;22878;48.616;35.326;2023-04-22T12:29:56;100474.19;;;16.10;99.95
36964;BME280;22878;48.616;35.326;2023-04-22T12:32:25;100474.30;;;16.10;100.00
36964;BME280;22878;48.616;35.326;2023-04-22T12:34:51;100478.84;;;16.16;100.00
36964;BME280;22878;48.616;35.326;2023-04-22T12:37:17;100482.48;;;16.17;100.00
36964;BME280;22878;48.616;35.326;2023-04-22T12:39:44;100482.19;;;16.25;100.00
36964;BME280;22878;48.616;35.326;2023-04-22T12:42:13;100485.40;;;16.34;100.00
36964;BME280;22878;48.616;35.326;2023-04-22T12:44:38;100485.64;;;16.41;100.00
36964;BME280;22878;48.616;35.326;2023-04-22T12:47:04;100480.89;;;16.50;100.00
36964;BME280;22878;48.616;35.326;2023-04-22T12:49:30;100474.68;;;16.48;100.00
36964;BME280;22878;48.616;35.326;2023-04-22T12:51:55;100472.09;;;16.58;100.00
36964;BME280;22878;48.616;35.326;2023-04-22T12:54:21;100473.39;;;16.80;100.00
36964;BME280;22878;48.616;35.326;2023-04-22T12:56:47;100474.64;;;17.04;100.00